Kahuta Weather



Kahuta's Current Weather

Temprature 22.69o scattered clouds

scattered clouds

Rain: 0 %

Min Temprature22.69o
Max Temprature22.69o
Humidity42
Wind Speed2.86 m/h
Sun Rise05:00:48
Sun Set19:06:02
Current Time: 24-May-2022 08:05:29
Lat/Lon: 33.5913, 73.3868




Kahuta's Geo Location



Kahuta's Weather Forecast

Time Overall Temp Min Temp Max Temp Humidity Wind Speed Rain
24-May-2022 (Tue)
11:00:00 scattered clouds 24.850 24.850 29.160 37 3.38 m/h 0 %
14:00:00 few clouds 28.880 28.880 31.970 28 4.94 m/h 0 %
17:00:00 few clouds 30.880 30.880 30.880 23 3.39 m/h 0 %
20:00:00 few clouds 26.400 26.400 26.400 31 1.01 m/h 0 %
23:00:00 clear sky 24.460 24.460 24.460 34 1.67 m/h 0 %
25-May-2022 (Wed)
02:00:00 clear sky 22.960 22.960 22.960 36 2.71 m/h 0 %
05:00:00 clear sky 22.040 22.040 22.040 38 2.94 m/h 0 %
08:00:00 clear sky 29.550 29.550 29.550 24 1.28 m/h 0 %
11:00:00 clear sky 34.160 34.160 34.160 17 3.74 m/h 0 %
14:00:00 clear sky 36.120 36.120 36.120 16 4.06 m/h 0 %
17:00:00 clear sky 35.830 35.830 35.830 15 3 m/h 0 %
20:00:00 clear sky 30.480 30.480 30.480 21 0.78 m/h 0 %
23:00:00 clear sky 27.900 27.900 27.900 25 1.82 m/h 0 %
26-May-2022 (Thu)
02:00:00 clear sky 26.040 26.040 26.040 28 2.93 m/h 0 %
05:00:00 clear sky 25.160 25.160 25.160 30 3.03 m/h 0 %
08:00:00 clear sky 32.860 32.860 32.860 19 1.65 m/h 0 %
11:00:00 clear sky 37.410 37.410 37.410 14 4.11 m/h 0 %
14:00:00 clear sky 39.460 39.460 39.460 12 3.54 m/h 0 %
17:00:00 clear sky 39.270 39.270 39.270 11 2.07 m/h 0 %
20:00:00 clear sky 32.940 32.940 32.940 15 1.33 m/h 0 %
23:00:00 clear sky 29.790 29.790 29.790 20 2.56 m/h 0 %
27-May-2022 (Fri)
02:00:00 clear sky 27.990 27.990 27.990 25 3.34 m/h 0 %
05:00:00 clear sky 27.170 27.170 27.170 26 3.8 m/h 0 %
08:00:00 clear sky 35.610 35.610 35.610 15 1.64 m/h 0 %
11:00:00 clear sky 39.630 39.630 39.630 11 3.95 m/h 0 %
14:00:00 clear sky 41.740 41.740 41.740 9 3.29 m/h 0 %
17:00:00 clear sky 41.710 41.710 41.710 8 2.88 m/h 0 %
20:00:00 clear sky 34.390 34.390 34.390 13 0.98 m/h 0 %
23:00:00 clear sky 31.890 31.890 31.890 16 3.45 m/h 0 %
28-May-2022 (Sat)
02:00:00 clear sky 29.920 29.920 29.920 18 4.04 m/h 0 %
05:00:00 few clouds 28.260 28.260 28.260 22 2.68 m/h 0 %
08:00:00 clear sky 36.250 36.250 36.250 14 0.89 m/h 0 %
11:00:00 clear sky 41.410 41.410 41.410 11 4.82 m/h 0 %
14:00:00 few clouds 42.780 42.780 42.780 10 7.08 m/h 0 %
17:00:00 light rain 34.000 34.000 34.000 25 6.9 m/h 16 %
20:00:00 light rain 30.140 30.140 30.140 35 7.52 m/h 50 %
23:00:00 overcast clouds 27.850 27.850 27.850 38 5.04 m/h 0 %
29-May-2022 (Sun)
02:00:00 broken clouds 26.020 26.020 26.020 42 4.81 m/h 0 %
05:00:00 broken clouds 25.340 25.340 25.340 41 3.75 m/h 0 %
08:00:00 broken clouds 33.450 33.450 33.450 23 2.17 m/h 0 %

Famous Cities (61)